Time;durP1;ratioP1;P1;durP2;ratioP2;P2;SDS_P1;SDS_P2;PMS_P1;PMS_P2;Temp;Humidity;BMP_temperature;BMP_pressure;BME280_temperature;BME280_humidity;BME280_pressure;Samples;Min_cycle;Max_cycle;Signal;HPM_P1;HPM_P2
2021/12/09 00:02:16;;;;;;;8.52;3.58;;;11.10;62.40;;;;;;4777599;30;20144;-75
2021/12/09 00:04:41;;;;;;;6.47;3.63;;;11.00;62.00;;;;;;4793431;30;20124;-75
2021/12/09 00:07:08;;;;;;;5.22;3.30;;;11.00;62.50;;;;;;4792877;30;20047;-75
2021/12/09 00:09:34;;;;;;;5.63;3.25;;;11.00;62.60;;;;;;4792844;30;20062;-74
2021/12/09 00:11:59;;;;;;;6.63;3.45;;;11.10;62.40;;;;;;4793313;30;20055;-76
2021/12/09 00:14:32;;;;;;;5.32;3.25;;;11.10;62.40;;;;;;4793099;30;20379;-74
2021/12/09 00:17:03;;;;;;;4.60;3.28;;;11.00;62.50;;;;;;4792945;30;20051;-74
2021/12/09 00:19:29;;;;;;;7.40;3.72;;;11.00;62.40;;;;;;4792814;29;20059;-73
2021/12/09 00:21:56;;;;;;;8.95;3.70;;;11.00;62.70;;;;;;4792487;30;20150;-74
2021/12/09 00:24:22;;;;;;;6.10;3.63;;;11.00;62.50;;;;;;4792801;30;20061;-74
2021/12/09 00:26:49;;;;;;;6.72;3.83;;;11.00;62.70;;;;;;4792050;30;20086;-76
2021/12/09 00:29:16;;;;;;;8.05;3.75;;;11.00;62.50;;;;;;4792766;30;20413;-75
2021/12/09 00:31:43;;;;;;;5.30;3.47;;;11.00;62.50;;;;;;4792646;30;20454;-75
2021/12/09 00:34:09;;;;;;;3.80;3.20;;;10.90;62.50;;;;;;4792554;30;20345;-75
2021/12/09 00:36:54;;;;;;;7.55;3.53;;;10.90;62.60;;;;;;4793020;30;20151;-74
2021/12/09 00:39:20;;;;;;;8.25;3.60;;;10.90;62.40;;;;;;4792727;30;20136;-77
2021/12/09 00:41:46;;;;;;;7.68;3.95;;;10.90;62.60;;;;;;4792524;29;20055;-75
2021/12/09 00:44:11;;;;;;;5.57;3.55;;;11.00;62.70;;;;;;4792873;30;20051;-74
2021/12/09 00:46:38;;;;;;;5.43;3.30;;;11.00;62.60;;;;;;4792324;30;20356;-73
2021/12/09 00:49:04;;;;;;;6.50;3.38;;;11.00;62.20;;;;;;4792244;30;20051;-75
2021/12/09 00:51:30;;;;;;;5.57;3.63;;;10.90;62.30;;;;;;4792844;30;20091;-75
2021/12/09 00:53:56;;;;;;;7.38;3.58;;;10.80;62.30;;;;;;4792349;30;20353;-74
2021/12/09 00:56:22;;;;;;;4.97;3.70;;;10.80;62.40;;;;;;4776506;30;20067;-75
2021/12/09 00:58:49;;;;;;;6.88;3.70;;;10.80;62.50;;;;;;4791097;30;20047;-74
2021/12/09 01:01:15;;;;;;;6.13;3.40;;;10.80;62.50;;;;;;4791727;30;20059;-74
2021/12/09 01:03:42;;;;;;;7.68;3.80;;;10.80;62.80;;;;;;4792398;30;20098;-75
2021/12/09 01:06:09;;;;;;;6.70;3.47;;;10.80;62.60;;;;;;4792049;30;20070;-75
2021/12/09 01:08:34;;;;;;;4.30;3.22;;;10.70;62.40;;;;;;4791958;30;20062;-74
2021/12/09 01:11:01;;;;;;;6.07;3.83;;;10.70;62.40;;;;;;4791195;30;20047;-73
2021/12/09 01:13:27;;;;;;;8.20;3.60;;;10.60;62.70;;;;;;4791967;30;20055;-76
2021/12/09 01:15:53;;;;;;;6.50;3.47;;;10.70;62.90;;;;;;4792044;30;20454;-74
2021/12/09 01:18:19;;;;;;;6.78;3.65;;;10.60;62.50;;;;;;4791277;30;20055;-76
2021/12/09 01:20:45;;;;;;;6.93;3.55;;;10.60;62.70;;;;;;4791630;30;20099;-74
2021/12/09 01:23:11;;;;;;;6.63;3.38;;;10.60;62.80;;;;;;4775521;30;20468;-75
2021/12/09 01:25:37;;;;;;;6.32;3.83;;;10.60;62.60;;;;;;4791953;30;20444;-75
2021/12/09 01:28:06;;;;;;;6.80;4.07;;;10.60;62.50;;;;;;4805913;29;20063;-74
2021/12/09 01:30:32;;;;;;;5.57;3.55;;;10.60;62.50;;;;;;4805900;29;20047;-75
2021/12/09 01:32:58;;;;;;;7.63;3.83;;;10.60;62.60;;;;;;4805728;29;20138;-74
2021/12/09 01:35:27;;;;;;;4.88;3.53;;;10.50;62.60;;;;;;4806089;29;20129;-75
2021/12/09 01:38:00;;;;;;;6.20;3.58;;;10.50;62.80;;;;;;4805705;29;20543;-74
2021/12/09 01:40:28;;;;;;;6.45;4.28;;;10.50;62.70;;;;;;4792063;30;20070;-75
2021/12/09 01:42:55;;;;;;;6.65;4.55;;;10.50;62.90;;;;;;4805620;29;20215;-74
2021/12/09 01:45:21;;;;;;;7.18;3.72;;;10.50;62.70;;;;;;4791570;30;20372;-75
2021/12/09 01:47:47;;;;;;;6.47;3.78;;;10.40;62.70;;;;;;4791379;30;20047;-74
2021/12/09 01:50:14;;;;;;;4.78;3.17;;;10.40;62.60;;;;;;4791078;30;20118;-75
2021/12/09 01:52:40;;;;;;;6.03;3.92;;;10.40;63.10;;;;;;4789824;29;20129;-75
2021/12/09 01:55:08;;;;;;;5.38;3.72;;;10.50;63.00;;;;;;4790432;30;20156;-75
2021/12/09 01:57:34;;;;;;;7.18;3.97;;;10.40;62.70;;;;;;4790870;30;20059;-75
2021/12/09 02:00:01;;;;;;;6.32;3.97;;;10.40;62.70;;;;;;4791159;30;20095;-75
2021/12/09 02:02:26;;;;;;;8.55;4.03;;;10.40;62.70;;;;;;4790410;30;20071;-74
2021/12/09 02:04:52;;;;;;;8.10;4.18;;;10.40;63.00;;;;;;4791643;30;20496;-74
2021/12/09 02:07:18;;;;;;;7.88;4.28;;;10.50;63.00;;;;;;4791171;30;20048;-74
2021/12/09 02:09:44;;;;;;;6.25;3.60;;;10.40;62.80;;;;;;4790848;30;20063;-75
2021/12/09 02:12:11;;;;;;;6.07;4.28;;;10.40;63.00;;;;;;4790734;30;20047;-76
2021/12/09 02:14:41;;;;;;;9.10;4.63;;;10.30;62.90;;;;;;4791364;30;20348;-74
2021/12/09 02:17:08;;;;;;;6.10;4.05;;;10.30;62.90;;;;;;4790007;30;20063;-74
2021/12/09 02:19:33;;;;;;;7.70;4.22;;;10.40;63.30;;;;;;4790786;30;20055;-77
2021/12/09 02:22:00;;;;;;;7.57;4.35;;;10.40;63.80;;;;;;4790514;30;20116;-73
2021/12/09 02:24:26;;;;;;;7.38;3.75;;;10.30;62.80;;;;;;4790524;30;20142;-74
2021/12/09 02:26:52;;;;;;;6.32;4.32;;;10.30;63.50;;;;;;4790586;30;20138;-73
2021/12/09 02:29:18;;;;;;;7.57;4.65;;;10.30;63.10;;;;;;4790439;30;20059;-75
2021/12/09 02:31:45;;;;;;;6.75;3.85;;;10.30;63.10;;;;;;4804936;29;20520;-76
2021/12/09 02:34:11;;;;;;;6.53;4.03;;;10.40;63.20;;;;;;4790479;30;20091;-77
2021/12/09 02:36:40;;;;;;;8.18;4.38;;;10.40;62.90;;;;;;4790543;30;20105;-76
2021/12/09 02:39:08;;;;;;;9.50;4.00;;;10.50;63.00;;;;;;4789979;30;20560;-75
2021/12/09 02:41:35;;;;;;;7.55;4.28;;;10.40;62.80;;;;;;4790906;30;20065;-75
2021/12/09 02:44:05;;;;;;;7.35;4.63;;;10.30;62.70;;;;;;4775126;30;20047;-74
2021/12/09 02:46:36;;;;;;;6.07;4.20;;;10.30;62.70;;;;;;4790352;30;20116;-74
2021/12/09 02:49:04;;;;;;;8.50;4.70;;;10.20;62.90;;;;;;4790519;30;20100;-75
2021/12/09 02:51:30;;;;;;;7.15;4.55;;;10.30;63.00;;;;;;4790430;30;20055;-75
2021/12/09 02:53:56;;;;;;;7.00;4.55;;;10.30;62.70;;;;;;4804669;29;20062;-73
2021/12/09 02:56:21;;;;;;;6.75;4.18;;;10.20;62.90;;;;;;4790742;30;20051;-75
2021/12/09 02:58:47;;;;;;;7.18;4.47;;;10.20;62.90;;;;;;4789810;30;20471;-74
2021/12/09 03:01:20;;;;;;;7.22;4.70;;;10.30;62.80;;;;;;4790164;30;20145;-73
2021/12/09 03:03:55;;;;;;;7.95;4.80;;;10.30;62.80;;;;;;4803398;29;20052;-74
2021/12/09 03:06:27;;;;;;;7.57;4.70;;;10.20;62.90;;;;;;4804045;29;20055;-74
2021/12/09 03:08:53;;;;;;;7.28;4.00;;;10.20;62.90;;;;;;4790353;30;20047;-74
2021/12/09 03:11:21;;;;;;;7.68;5.18;;;10.20;62.90;;;;;;4790148;30;20156;-74
2021/12/09 03:13:48;;;;;;;8.35;5.05;;;10.20;62.70;;;;;;4790197;30;20061;-74
2021/12/09 03:16:14;;;;;;;7.13;4.63;;;10.20;62.70;;;;;;4790215;30;20051;-75
2021/12/09 03:18:47;;;;;;;8.32;5.22;;;10.20;63.60;;;;;;4804449;29;20334;-73
2021/12/09 03:21:23;;;;;;;7.88;4.43;;;10.10;62.80;;;;;;4790183;30;20043;-75
2021/12/09 03:23:49;;;;;;;5.60;3.83;;;10.10;62.90;;;;;;4789713;30;20124;-75
2021/12/09 03:26:17;;;;;;;8.45;4.75;;;10.10;63.00;;;;;;4790171;30;20067;-74
2021/12/09 03:28:43;;;;;;;6.75;4.40;;;10.10;62.90;;;;;;4789999;30;20051;-77
2021/12/09 03:31:09;;;;;;;9.60;5.45;;;10.10;62.80;;;;;;4774187;30;20067;-75
2021/12/09 03:33:35;;;;;;;8.25;4.97;;;10.10;63.20;;;;;;4804540;29;20094;-76
2021/12/09 03:36:05;;;;;;;10.07;4.65;;;10.10;63.00;;;;;;4789742;30;20055;-75
2021/12/09 03:38:33;;;;;;;9.43;4.82;;;10.10;62.60;;;;;;4774419;30;20071;-74
2021/12/09 03:40:59;;;;;;;9.00;4.47;;;10.10;62.90;;;;;;4804024;29;20063;-75
2021/12/09 03:43:25;;;;;;;6.95;5.07;;;10.00;63.00;;;;;;4789812;30;20066;-73
2021/12/09 03:45:54;;;;;;;7.65;5.03;;;10.00;63.10;;;;;;4789831;30;20063;-74
2021/12/09 03:48:25;;;;;;;7.65;5.15;;;10.00;63.20;;;;;;4773956;30;20047;-74
2021/12/09 03:50:51;;;;;;;7.38;4.85;;;10.10;63.20;;;;;;4803911;29;20408;-74
2021/12/09 03:53:17;;;;;;;5.65;4.38;;;10.10;62.50;;;;;;4789163;30;20051;-75
2021/12/09 03:55:43;;;;;;;6.72;4.57;;;10.00;63.00;;;;;;4790410;30;20402;-73
2021/12/09 03:58:09;;;;;;;7.00;4.78;;;10.00;63.00;;;;;;4773779;30;20066;-74
2021/12/09 04:00:35;;;;;;;8.05;4.63;;;10.10;63.20;;;;;;4788917;30;20055;-72
2021/12/09 04:03:01;;;;;;;7.85;4.63;;;10.00;62.70;;;;;;4804038;29;20108;-73
2021/12/09 04:05:27;;;;;;;8.27;5.22;;;10.00;63.00;;;;;;4789207;30;20059;-76
2021/12/09 04:07:53;;;;;;;7.72;5.05;;;9.90;62.90;;;;;;4789124;30;20070;-75
2021/12/09 04:10:19;;;;;;;8.52;4.72;;;9.90;62.80;;;;;;4788464;30;20051;-75
2021/12/09 04:12:45;;;;;;;7.22;4.90;;;9.90;63.20;;;;;;4789423;30;20139;-73
2021/12/09 04:15:12;;;;;;;7.55;4.53;;;9.90;63.20;;;;;;4790322;29;20127;-75
2021/12/09 04:17:37;;;;;;;9.20;4.97;;;9.90;63.10;;;;;;4792772;30;20047;-75
2021/12/09 04:20:06;;;;;;;7.68;5.07;;;9.90;63.00;;;;;;4792712;30;20077;-73
2021/12/09 04:22:32;;;;;;;7.70;4.78;;;9.80;63.20;;;;;;4792683;30;20071;-74
2021/12/09 04:24:58;;;;;;;8.77;4.68;;;9.80;63.00;;;;;;4792939;30;20127;-73
2021/12/09 04:27:25;;;;;;;11.20;5.30;;;9.90;63.10;;;;;;4792639;30;20452;-75
2021/12/09 04:29:51;;;;;;;7.78;4.72;;;9.80;62.80;;;;;;4792595;30;20063;-75
2021/12/09 04:32:17;;;;;;;8.75;4.60;;;9.80;63.00;;;;;;4792303;30;20063;-74
2021/12/09 04:34:44;;;;;;;7.63;4.80;;;9.80;63.00;;;;;;4792577;30;20359;-75
2021/12/09 04:37:10;;;;;;;7.13;4.63;;;9.80;63.20;;;;;;4792502;30;20055;-74
2021/12/09 04:39:36;;;;;;;8.45;4.60;;;9.80;63.20;;;;;;4791611;30;20063;-74
2021/12/09 04:42:03;;;;;;;6.68;4.57;;;9.80;63.00;;;;;;4792582;30;20143;-74
2021/12/09 04:44:29;;;;;;;8.00;4.47;;;9.80;63.20;;;;;;4792813;30;20340;-74
2021/12/09 04:46:56;;;;;;;8.68;4.82;;;9.80;63.10;;;;;;4792040;30;20051;-74
2021/12/09 04:49:23;;;;;;;6.53;4.40;;;9.70;62.80;;;;;;4792508;30;20093;-73
2021/12/09 04:51:48;;;;;;;11.65;5.20;;;9.70;63.00;;;;;;4792249;30;20047;-73
2021/12/09 04:54:15;;;;;;;8.48;5.40;;;9.70;63.10;;;;;;4792391;30;20067;-75
2021/12/09 04:56:41;;;;;;;9.90;4.85;;;9.60;62.90;;;;;;4792328;30;20058;-74
2021/12/09 04:59:07;;;;;;;6.97;4.93;;;9.60;63.00;;;;;;4791795;30;20062;-74
2021/12/09 05:01:34;;;;;;;7.70;4.70;;;9.60;63.20;;;;;;4791157;30;20062;-74
2021/12/09 05:04:01;;;;;;;7.38;4.72;;;9.60;62.90;;;;;;4791182;30;20460;-73
2021/12/09 05:06:29;;;;;;;9.30;5.05;;;9.60;63.20;;;;;;4795274;29;20058;-75
2021/12/09 05:09:05;;;;;;;8.32;5.20;;;9.60;63.00;;;;;;4810006;29;20058;-75
2021/12/09 05:14:05;;;;;;;9.48;5.43;;;9.70;62.90;;;;;;4808403;29;20451;-77
2021/12/09 05:16:39;;;;;;;7.68;4.60;;;9.80;63.90;;;;;;4808627;29;20157;-80
2021/12/09 05:19:30;;;;;;;10.70;5.80;;;10.10;63.50;;;;;;4785121;29;20083;-79
2021/12/09 05:21:55;;;;;;;9.98;5.68;;;10.40;62.30;;;;;;4793701;29;20043;-79
2021/12/09 05:24:34;;;;;;;8.48;6.07;;;10.60;61.30;;;;;;4792958;29;20494;-81
2021/12/09 05:27:00;;;;;;;7.75;5.63;;;10.70;60.40;;;;;;4793025;29;20556;-76
2021/12/09 05:29:36;;;;;;;10.23;6.05;;;10.80;60.00;;;;;;4809358;29;20412;-80
2021/12/09 05:32:08;;;;;;;15.32;6.30;;;10.90;59.80;;;;;;4793719;29;20043;-80
2021/12/09 05:34:44;;;;;;;32.28;7.75;;;11.00;60.40;;;;;;4809117;29;20046;-77
2021/12/09 05:37:16;;;;;;;23.42;6.85;;;10.80;59.80;;;;;;4778429;29;20196;-79
2021/12/09 05:39:48;;;;;;;15.02;5.75;;;10.30;61.70;;;;;;4793230;29;20074;-78
2021/12/09 05:42:19;;;;;;;15.43;6.15;;;10.10;62.60;;;;;;4809173;29;20043;-71
2021/12/09 05:44:45;;;;;;;12.38;5.18;;;10.00;63.50;;;;;;4809471;29;20046;-77
2021/12/09 05:47:17;;;;;;;12.13;4.35;;;9.90;64.30;;;;;;4792859;29;20366;-79
2021/12/09 05:49:52;;;;;;;11.85;4.55;;;10.40;67.10;;;;;;4807575;29;20039;-79
2021/12/09 05:52:18;;;;;;;11.82;3.90;;;11.30;64.70;;;;;;4804685;29;20047;-78
2021/12/09 05:54:44;;;;;;;9.85;3.75;;;12.00;63.30;;;;;;4792994;29;20043;-79
2021/12/09 05:57:10;;;;;;;13.20;3.47;;;12.60;61.90;;;;;;4806057;29;20042;-75
2021/12/09 05:59:40;;;;;;;13.20;2.85;;;13.00;61.50;;;;;;4808708;29;20063;-79
2021/12/09 06:02:10;;;;;;;12.95;3.05;;;13.40;60.70;;;;;;4808298;29;20112;-76
2021/12/09 06:04:45;;;;;;;14.07;3.83;;;13.70;60.20;;;;;;4790890;30;20139;-79
2021/12/09 06:07:12;;;;;;;9.15;3.28;;;13.90;59.70;;;;;;4760361;30;20051;-74
2021/12/09 06:09:39;;;;;;;11.57;2.80;;;14.10;59.40;;;;;;4802579;29;20054;-77
2021/12/09 06:12:06;;;;;;;11.73;3.05;;;14.40;59.10;;;;;;4791656;29;20051;-76
2021/12/09 06:14:32;;;;;;;13.23;2.70;;;14.60;59.30;;;;;;4808627;29;20078;-77
2021/12/09 06:16:59;;;;;;;13.10;3.58;;;14.80;59.20;;;;;;4796588;29;20434;-76
2021/12/09 06:19:25;;;;;;;14.32;3.83;;;15.00;59.10;;;;;;4808327;29;20509;-75
2021/12/09 06:21:51;;;;;;;11.98;2.95;;;15.10;59.00;;;;;;4793017;29;20055;-73
2021/12/09 06:24:18;;;;;;;11.63;2.45;;;15.20;58.40;;;;;;4804946;29;20070;-75
2021/12/09 06:26:44;;;;;;;12.88;2.85;;;15.20;58.80;;;;;;4804298;29;20383;-72
2021/12/09 06:29:10;;;;;;;12.13;2.95;;;15.30;59.00;;;;;;4807658;29;20078;-74
2021/12/09 06:31:36;;;;;;;12.13;3.25;;;15.40;58.70;;;;;;4813833;29;20078;-79
2021/12/09 06:34:01;;;;;;;16.05;3.40;;;15.40;58.90;;;;;;4790189;29;20051;-77
2021/12/09 06:36:27;;;;;;;11.82;3.20;;;15.50;58.30;;;;;;4797183;29;20062;-77
2021/12/09 06:38:53;;;;;;;9.35;3.53;;;15.50;57.40;;;;;;4806350;29;20067;-78
2021/12/09 06:41:19;;;;;;;9.07;3.83;;;15.50;56.40;;;;;;4778978;29;20367;-80
2021/12/09 06:43:45;;;;;;;15.70;4.43;;;15.50;54.70;;;;;;4792195;29;20138;-79
2021/12/09 06:46:12;;;;;;;15.80;3.70;;;14.80;51.10;;;;;;4792124;29;20134;-79
2021/12/09 06:48:40;;;;;;;13.60;3.78;;;14.60;55.80;;;;;;4791712;29;20471;-81
2021/12/09 06:51:09;;;;;;;10.15;3.70;;;14.80;56.60;;;;;;4791996;29;20476;-77
2021/12/09 06:58:46;;;;;;;;;;;;;;;;;;;;;
2021/12/09 07:06:34;;;;;;;;;;;;;;;;;;;;;
2021/12/09 07:10:26;;;;;;;;;;;;;;;;;;;;;
2021/12/09 07:14:43;;;;;;;8.18;2.85;;;14.60;55.20;;;;;;4629538;30;20054;-80
2021/12/09 07:21:58;;;;;;;;;;;;;;;;;;;;;
2021/12/09 07:25:23;;;;;;;7.80;2.95;;;14.30;56.30;;;;;;4640176;30;20438;-80
2021/12/09 07:28:36;;;;;;;5.70;2.47;;;14.20;56.50;;;;;;4685057;30;20107;-81
2021/12/09 07:31:49;;;;;;;8.52;2.60;;;14.10;56.60;;;;;;4674865;30;20054;-81
2021/12/09 07:34:46;;;;;;;7.88;2.53;;;14.00;56.90;;;;;;4694233;30;20059;-81
2021/12/09 07:37:57;;;;;;;6.13;2.38;;;14.00;57.10;;;;;;4779710;29;20152;-81
2021/12/09 07:41:26;;;;;;;;;;;;;;;;;;;;;
2021/12/09 07:48:23;;;;;;;7.10;2.55;;;14.10;57.10;;;;;;4790410;29;20054;-81
2021/12/09 08:05:43;;;;;;;4.22;2.15;;;14.10;57.20;;;;;;4791956;29;20135;-81
2021/12/09 08:08:51;;;;;;;5.45;1.95;;;14.00;57.20;;;;;;4750914;30;20055;-81
2021/12/09 08:11:49;;;;;;;4.78;1.90;;;14.00;57.30;;;;;;4778910;29;20054;-81
2021/12/09 08:15:20;;;;;;;6.32;1.80;;;14.00;57.30;;;;;;4793617;29;20051;-80
2021/12/09 08:22:42;;;;;;;5.35;1.75;;;13.90;57.30;;;;;;4769298;30;20080;-81
2021/12/09 08:29:43;;;;;;;4.60;2.20;;;13.90;57.50;;;;;;4729160;30;20392;-82
2021/12/09 08:33:05;;;;;;;4.50;2.00;;;13.90;57.50;;;;;;4756674;30;20068;-81
2021/12/09 08:39:44;;;;;;;3.70;1.88;;;13.90;57.60;;;;;;4737432;30;20143;-81
2021/12/09 08:46:01;;;;;;;;;;;;;;;;;;;;;
2021/12/09 08:49:08;;;;;;;5.10;2.22;;;13.90;57.50;;;;;;4787909;30;20060;-81
2021/12/09 08:52:00;;;;;;;2.88;1.58;;;13.80;57.50;;;;;;4773258;30;20044;-81
2021/12/09 08:55:03;;;;;;;4.20;1.98;;;13.90;57.60;;;;;;4759661;30;20086;-81
2021/12/09 08:57:59;;;;;;;3.00;1.38;;;13.80;57.50;;;;;;4746022;30;20500;-81
2021/12/09 09:00:49;;;;;;;4.60;1.92;;;13.90;57.60;;;;;;4784601;30;20047;-79
2021/12/09 09:03:15;;;;;;;12.80;3.03;;;13.90;57.50;;;;;;4757241;30;20051;-75
2021/12/09 09:05:42;;;;;;;10.50;2.55;;;14.00;57.70;;;;;;4774005;30;20040;-77
2021/12/09 09:08:10;;;;;;;6.78;2.25;;;14.00;57.30;;;;;;4772349;30;20071;-80
2021/12/09 09:10:40;;;;;;;13.55;3.03;;;14.00;56.90;;;;;;4758206;30;20051;-77
2021/12/09 09:13:06;;;;;;;10.60;2.63;;;14.20;56.70;;;;;;4771988;30;20086;-74
2021/12/09 09:15:32;;;;;;;10.38;2.05;;;14.50;56.40;;;;;;4774061;30;20079;-75
2021/12/09 09:18:00;;;;;;;18.83;2.55;;;14.70;56.30;;;;;;4773141;30;20063;-75
2021/12/09 09:20:28;;;;;;;10.73;2.53;;;14.90;56.30;;;;;;4773850;30;20424;-74
2021/12/09 09:22:54;;;;;;;10.95;2.55;;;15.10;56.30;;;;;;4773642;30;20051;-76
2021/12/09 09:25:28;;;;;;;13.00;2.15;;;15.30;56.30;;;;;;4787467;30;20116;-76
2021/12/09 09:27:54;;;;;;;6.85;2.22;;;15.40;56.10;;;;;;4791258;30;20350;-77
2021/12/09 09:30:20;;;;;;;8.20;2.15;;;15.60;56.20;;;;;;4791280;29;20142;-76
2021/12/09 09:32:49;;;;;;;13.70;3.00;;;15.70;56.10;;;;;;4791698;29;20242;-77
2021/12/09 09:35:16;;;;;;;34.15;4.78;;;15.80;56.20;;;;;;4791437;30;20047;-75
2021/12/09 09:37:42;;;;;;;10.20;3.22;;;15.80;55.00;;;;;;4790257;30;20380;-77
2021/12/09 09:40:12;;;;;;;18.55;3.88;;;15.80;54.80;;;;;;4791094;30;20051;-75
2021/12/09 09:45:10;;;;;;;14.57;3.10;;;15.90;55.10;;;;;;4791629;30;20055;-78
2021/12/09 09:47:36;;;;;;;20.45;3.90;;;16.00;55.00;;;;;;4789903;30;20058;-73
2021/12/09 09:50:06;;;;;;;14.15;3.42;;;16.10;55.00;;;;;;4791042;30;20051;-74
2021/12/09 09:52:33;;;;;;;17.55;3.95;;;16.20;54.30;;;;;;4790483;30;20134;-76
2021/12/09 09:55:01;;;;;;;15.20;3.28;;;16.20;54.30;;;;;;4791196;30;20140;-74
2021/12/09 09:57:27;;;;;;;18.35;4.25;;;16.30;54.10;;;;;;4791296;29;20091;-78
2021/12/09 09:59:53;;;;;;;21.00;3.97;;;16.30;54.20;;;;;;4791189;29;20111;-76
2021/12/09 10:02:19;;;;;;;18.17;3.25;;;16.40;54.30;;;;;;4790113;30;20086;-79
2021/12/09 10:04:48;;;;;;;16.17;3.83;;;16.50;54.60;;;;;;4789844;30;20134;-79
2021/12/09 10:07:16;;;;;;;18.88;3.40;;;16.50;54.30;;;;;;4790378;30;20062;-80
2021/12/09 10:09:43;;;;;;;19.65;3.55;;;16.60;54.30;;;;;;4790066;30;20051;-80
2021/12/09 10:12:09;;;;;;;15.32;2.60;;;16.60;54.10;;;;;;4790686;30;20119;-76
2021/12/09 10:14:37;;;;;;;16.58;3.15;;;16.70;54.00;;;;;;4790409;29;20136;-75
2021/12/09 10:17:07;;;;;;;15.77;3.42;;;16.70;52.40;;;;;;4781032;29;20152;-74
2021/12/09 10:19:34;;;;;;;16.25;2.97;;;16.70;52.90;;;;;;4777656;30;20072;-75
2021/12/09 10:22:08;;;;;;;11.70;3.05;;;16.70;53.00;;;;;;4775358;30;20051;-75
2021/12/09 10:24:34;;;;;;;19.20;2.95;;;16.80;52.90;;;;;;4786952;30;20452;-73
2021/12/09 10:27:00;;;;;;;16.70;3.00;;;16.80;53.10;;;;;;4790430;29;20446;-76
2021/12/09 10:29:34;;;;;;;18.50;2.70;;;16.90;53.00;;;;;;4790548;29;20139;-75
2021/12/09 10:32:08;;;;;;;16.35;2.70;;;16.90;53.10;;;;;;4790738;29;20089;-76
2021/12/09 10:34:43;;;;;;;16.13;2.97;;;16.90;53.30;;;;;;4790140;29;20130;-75
2021/12/09 10:37:08;;;;;;;17.02;3.42;;;16.90;53.50;;;;;;4789670;30;20062;-74
2021/12/09 10:39:47;;;;;;;10.13;2.72;;;16.90;53.90;;;;;;4789412;30;20059;-74
2021/12/09 10:42:23;;;;;;;13.38;2.85;;;16.90;54.20;;;;;;4790516;29;20055;-77
2021/12/09 10:44:54;;;;;;;13.90;2.40;;;16.90;54.50;;;;;;4790378;30;20063;-74
2021/12/09 10:47:45;;;;;;;12.90;2.40;;;16.90;54.60;;;;;;4790379;30;20055;-77
2021/12/09 10:50:21;;;;;;;12.82;2.83;;;16.90;54.80;;;;;;4789133;30;20152;-77
2021/12/09 10:52:53;;;;;;;8.70;2.35;;;16.90;54.90;;;;;;4789182;30;20055;-78
2021/12/09 10:55:33;;;;;;;11.77;2.90;;;16.90;54.80;;;;;;4789087;29;20506;-77
2021/12/09 10:58:09;;;;;;;14.18;2.92;;;16.90;54.70;;;;;;4786189;30;20046;-77
2021/12/09 11:00:45;;;;;;;14.38;2.85;;;16.90;54.80;;;;;;4789879;29;20055;-77
2021/12/09 11:03:24;;;;;;;16.52;3.30;;;17.00;54.70;;;;;;4789352;30;20051;-78
2021/12/09 11:06:07;;;;;;;9.25;2.55;;;17.00;54.20;;;;;;4789374;30;20058;-76
2021/12/09 11:08:46;;;;;;;12.57;2.93;;;17.10;53.90;;;;;;4790025;29;20050;-78
2021/12/09 11:11:13;;;;;;;18.02;2.90;;;17.00;53.80;;;;;;4790226;29;20047;-82
2021/12/09 11:14:08;;;;;;;14.55;3.30;;;17.00;53.80;;;;;;4790314;29;20417;-77
2021/12/09 11:16:45;;;;;;;17.70;3.28;;;17.00;53.70;;;;;;4789437;29;20048;-79
2021/12/09 11:19:40;;;;;;;14.07;3.00;;;17.00;53.80;;;;;;4803369;29;20435;-78
2021/12/09 11:22:12;;;;;;;13.15;3.65;;;17.00;54.00;;;;;;4788810;30;20039;-82
2021/12/09 11:24:44;;;;;;;11.75;3.50;;;17.00;54.10;;;;;;4772811;30;20043;-77
2021/12/09 11:27:15;;;;;;;10.70;2.67;;;17.00;54.20;;;;;;4788353;30;20051;-83
2021/12/09 11:29:55;;;;;;;8.75;2.90;;;17.10;54.90;;;;;;4773879;30;20040;-81
2021/12/09 11:35:13;;;;;;;11.00;3.97;;;17.10;55.80;;;;;;4785661;30;20067;-78
2021/12/09 11:37:48;;;;;;;13.10;4.13;;;17.20;57.40;;;;;;4773406;30;20055;-77
2021/12/09 11:40:41;;;;;;;10.05;3.85;;;17.20;56.70;;;;;;4788459;30;20047;-78
2021/12/09 11:43:12;;;;;;;13.20;4.50;;;17.20;55.50;;;;;;4789381;29;20047;-75
2021/12/09 11:45:42;;;;;;;14.75;4.95;;;17.20;55.50;;;;;;4789314;29;20051;-76
2021/12/09 11:48:09;;;;;;;16.98;5.57;;;17.30;57.10;;;;;;4789390;30;20093;-77
2021/12/09 11:50:46;;;;;;;12.60;4.50;;;17.30;58.20;;;;;;4789251;29;20062;-75
2021/12/09 11:53:16;;;;;;;12.20;5.38;;;17.20;56.50;;;;;;4789926;30;20059;-76
2021/12/09 11:55:45;;;;;;;16.77;4.90;;;17.30;56.50;;;;;;4788845;30;20349;-76
2021/12/09 11:58:19;;;;;;;14.15;4.88;;;17.30;56.10;;;;;;4788600;29;20063;-69
2021/12/09 12:12:29;;;;;;;10.40;5.47;;;17.40;53.60;;;;;;4789166;30;20138;-74
2021/12/09 12:15:02;;;;;;;11.70;3.67;;;17.40;53.80;;;;;;4771618;30;20093;-77
2021/12/09 12:17:38;;;;;;;14.95;4.47;;;17.50;53.90;;;;;;4771757;30;20388;-75
2021/12/09 12:25:44;;;;;;;8.07;3.58;;;17.50;54.00;;;;;;4788278;29;20060;-75
2021/12/09 12:28:53;;;;;;;14.45;3.72;;;17.40;54.60;;;;;;4789173;30;20107;-74
2021/12/09 12:37:45;;;;;;;8.10;3.70;;;17.30;55.10;;;;;;4791687;29;20051;-77
2021/12/09 12:40:15;;;;;;;12.05;3.88;;;17.30;55.60;;;;;;4792292;30;20360;-78
2021/12/09 12:42:51;;;;;;;12.00;3.58;;;17.30;56.50;;;;;;4780316;30;20119;-75
2021/12/09 12:45:51;;;;;;;13.88;4.55;;;17.20;58.10;;;;;;4792708;29;20365;-76
2021/12/09 12:48:44;;;;;;;12.98;4.38;;;17.20;56.80;;;;;;4792864;29;20051;-78
2021/12/09 12:54:42;;;;;;;11.45;3.75;;;17.20;56.90;;;;;;4791773;30;20063;-81
2021/12/09 12:57:17;;;;;;;11.68;3.75;;;17.20;57.10;;;;;;4772986;30;20205;-81
2021/12/09 13:00:00;;;;;;;9.32;3.92;;;17.20;57.10;;;;;;4783313;30;20380;-80
2021/12/09 13:05:21;;;;;;;12.93;4.18;;;17.20;57.80;;;;;;4791133;30;20146;-81
2021/12/09 13:16:59;;;;;;;12.82;4.10;;;17.10;58.70;;;;;;4790547;30;20059;-78
2021/12/09 13:19:18;;;;;;;8.73;3.50;;;17.10;59.10;;;;;;4788110;29;20421;-77
2021/12/09 13:21:46;;;;;;;17.83;4.03;;;17.20;59.30;;;;;;4791829;30;20395;-75
2021/12/09 13:24:47;;;;;;;13.50;4.57;;;17.20;59.20;;;;;;4790369;30;20128;-77
2021/12/09 13:47:21;;;;;;;9.85;4.53;;;16.70;55.90;;;;;;4789978;29;20043;-82
2021/12/09 13:50:14;;;;;;;15.40;4.35;;;16.60;56.40;;;;;;4775119;30;20054;-82
2021/12/09 13:55:09;;;;;;;10.52;4.25;;;16.50;57.40;;;;;;4791297;29;20055;-75
2021/12/09 13:57:42;;;;;;;9.43;4.45;;;16.50;57.70;;;;;;4788720;29;20087;-76
2021/12/09 14:00:42;;;;;;;11.52;4.45;;;16.50;57.80;;;;;;4790978;29;20063;-77
2021/12/09 14:03:12;;;;;;;12.90;5.22;;;16.40;57.70;;;;;;4789732;30;20051;-77
2021/12/09 14:05:44;;;;;;;13.40;5.68;;;16.40;57.80;;;;;;4791182;29;20134;-78
2021/12/09 14:08:11;;;;;;;16.30;5.60;;;16.30;57.60;;;;;;4790184;30;20160;-74
2021/12/09 14:10:41;;;;;;;15.80;5.47;;;16.40;57.30;;;;;;4791041;29;20412;-72
2021/12/09 14:13:14;;;;;;;12.57;5.18;;;16.40;56.80;;;;;;4789129;30;20051;-77
2021/12/09 14:16:01;;;;;;;14.15;5.15;;;16.50;56.40;;;;;;4785245;29;20194;-74
2021/12/09 14:19:57;;;;;;;11.35;4.47;;;16.50;56.40;;;;;;4785625;30;20344;-76
2021/12/09 14:21:30;;;;;;;15.40;4.13;;;16.50;56.70;;;;;;4790472;30;20047;-74
2021/12/09 14:24:13;;;;;;;11.27;3.75;;;16.60;56.90;;;;;;4792720;29;20058;-76
2021/12/09 14:26:40;;;;;;;12.23;4.40;;;16.70;57.10;;;;;;4808395;29;20210;-76
2021/12/09 14:29:07;;;;;;;17.70;4.00;;;16.80;57.20;;;;;;4792667;29;20134;-77
2021/12/09 14:31:46;;;;;;;14.57;4.00;;;16.90;57.20;;;;;;4808589;29;20050;-78
2021/12/09 14:34:13;;;;;;;14.93;3.65;;;16.90;57.40;;;;;;4789527;30;20059;-77
2021/12/09 14:36:40;;;;;;;9.93;3.85;;;16.90;57.30;;;;;;4789804;30;20055;-79
2021/12/09 14:39:11;;;;;;;12.57;3.83;;;16.50;54.60;;;;;;4789560;30;20059;-77
2021/12/09 14:41:37;;;;;;;9.10;3.45;;;16.30;58.30;;;;;;4790285;30;20519;-77
2021/12/09 14:44:08;;;;;;;9.95;3.17;;;16.50;58.70;;;;;;4798989;29;20062;-77
2021/12/09 14:46:37;;;;;;;14.77;4.00;;;16.60;58.50;;;;;;4808228;29;20046;-78
2021/12/09 14:49:24;;;;;;;11.23;3.70;;;16.70;58.40;;;;;;4808300;29;20451;-78
2021/12/09 14:51:53;;;;;;;15.27;3.47;;;16.80;58.30;;;;;;4807825;29;20055;-75
2021/12/09 14:54:20;;;;;;;13.60;3.55;;;16.90;57.90;;;;;;4791528;29;20467;-76
2021/12/09 14:56:54;;;;;;;14.45;3.42;;;16.90;58.00;;;;;;4807942;29;20051;-75
2021/12/09 14:59:21;;;;;;;14.63;3.10;;;17.00;58.00;;;;;;4807987;29;20055;-76
2021/12/09 15:02:04;;;;;;;13.00;2.83;;;17.00;57.90;;;;;;4808073;29;20054;-77
2021/12/09 15:04:35;;;;;;;12.05;3.60;;;17.00;58.10;;;;;;4808320;29;20134;-76
2021/12/09 15:07:18;;;;;;;13.77;3.17;;;17.00;58.10;;;;;;4808180;29;20054;-76
2021/12/09 15:09:55;;;;;;;15.02;3.35;;;17.00;57.80;;;;;;4792115;29;20070;-75
2021/12/09 15:12:23;;;;;;;12.32;3.03;;;17.00;58.00;;;;;;4791451;29;20129;-76
2021/12/09 15:14:52;;;;;;;14.93;3.42;;;17.00;58.30;;;;;;4807982;29;20059;-75
2021/12/09 15:17:20;;;;;;;14.80;3.63;;;17.00;58.40;;;;;;4791844;29;20054;-73
2021/12/09 15:20:07;;;;;;;15.98;3.50;;;17.00;58.30;;;;;;4808564;29;20050;-76